Time,TemperatureF,DewpointF,PressureIn,WindDirection,WindDirectionDegrees,WindSpeedMPH,WindSpeedGustMPH,Humidity,HourlyPrecipIn,Conditions,Clouds,dailyrainin,SoftwareType,DateUTC
2013-07-08 00:12:00,64.2,57.0,29.80,NNE,18,2.0,6.0,77,0.00,,,0.00,weatherlink.com 1.10,2013-07-08 06:12:00,
2013-07-08 00:27:00,64.2,57.0,29.79,NNE,18,0.0,4.0,78,0.00,,,0.00,weatherlink.com 1.10,2013-07-08 06:27:00,
2013-07-08 00:42:00,63.9,58.0,29.79,NNE,18,4.0,6.0,80,0.00,,,0.00,weatherlink.com 1.10,2013-07-08 06:42:00,
2013-07-08 00:57:00,63.9,58.0,29.78,NNE,18,2.0,6.0,81,0.00,,,0.00,weatherlink.com 1.10,2013-07-08 06:57:00,
2013-07-08 01:12:00,63.7,57.0,29.78,NNE,18,3.0,4.0,79,0.00,,,0.00,weatherlink.com 1.10,2013-07-08 07:12:00,
2013-07-08 01:27:00,63.2,58.0,29.78,NNE,18,3.0,4.0,82,0.00,,,0.00,weatherlink.com 1.10,2013-07-08 07:27:00,
2013-07-08 01:42:00,63.3,58.0,29.78,NNE,18,0.0,0.0,83,0.00,,,0.00,weatherlink.com 1.10,2013-07-08 07:42:00,
2013-07-08 01:57:00,62.6,58.0,29.77,NNE,18,3.0,4.0,84,0.00,,,0.00,weatherlink.com 1.10,2013-07-08 07:57:00,
2013-07-08 02:12:00,62.7,58.0,29.77,NNE,18,0.0,3.0,85,0.00,,,0.00,weatherlink.com 1.10,2013-07-08 08:12:00,
2013-07-08 02:27:00,62.3,58.0,29.77,NNE,18,0.0,0.0,85,0.00,,,0.00,weatherlink.com 1.10,2013-07-08 08:27:00,
2013-07-08 02:42:00,62.6,58.0,29.77,NNE,18,0.0,2.0,85,0.00,,,0.00,weatherlink.com 1.10,2013-07-08 08:42:00,
2013-07-08 02:57:00,62.7,57.0,29.76,NNE,18,0.0,2.0,81,0.00,,,0.00,weatherlink.com 1.10,2013-07-08 08:57:00,
2013-07-08 03:12:00,62.2,57.0,29.77,NNE,18,0.0,6.0,84,0.00,,,0.00,weatherlink.com 1.10,2013-07-08 09:12:00,
2013-07-08 03:27:00,61.4,57.0,29.77,NNE,18,0.0,7.0,85,0.00,,,0.00,weatherlink.com 1.10,2013-07-08 09:27:00,
2013-07-08 03:42:00,63.0,55.0,29.76,NNE,18,1.0,6.0,74,0.00,,,0.00,weatherlink.com 1.10,2013-07-08 09:42:00,
2013-07-08 03:57:00,61.8,57.0,29.76,NNE,18,3.0,5.0,83,0.00,,,0.00,weatherlink.com 1.10,2013-07-08 09:57:00,
2013-07-08 04:12:00,62.0,55.0,29.76,NNE,18,8.0,9.0,78,0.00,,,0.00,weatherlink.com 1.10,2013-07-08 10:12:00,
2013-07-08 04:27:00,64.8,52.0,29.76,NNE,18,6.0,10.0,64,0.00,,,0.00,weatherlink.com 1.10,2013-07-08 10:27:00,
2013-07-08 04:42:00,66.0,52.0,29.76,NNE,18,10.0,13.0,61,0.00,,,0.00,weatherlink.com 1.10,2013-07-08 10:42:00,
2013-07-08 04:57:00,65.3,51.0,29.76,NNE,18,4.0,10.0,61,0.00,,,0.00,weatherlink.com 1.10,2013-07-08 10:57:00,
2013-07-08 05:12:00,64.0,52.0,29.76,NNE,18,4.0,7.0,66,0.00,,,0.00,weatherlink.com 1.10,2013-07-08 11:12:00,
2013-07-08 05:27:00,63.1,52.0,29.76,NNE,18,7.0,8.0,67,0.00,,,0.00,weatherlink.com 1.10,2013-07-08 11:27:00,
2013-07-08 05:42:00,61.8,52.0,29.76,NNE,18,6.0,6.0,71,0.00,,,0.00,weatherlink.com 1.10,2013-07-08 11:42:00,
2013-07-08 05:57:00,62.0,52.0,29.76,NNE,18,6.0,8.0,69,0.00,,,0.00,weatherlink.com 1.10,2013-07-08 11:57:00,
2013-07-08 06:12:00,61.7,52.0,29.76,NNE,18,0.0,8.0,70,0.00,,,0.00,weatherlink.com 1.10,2013-07-08 12:12:00,
2013-07-08 06:27:00,61.8,54.0,29.76,NNE,18,0.0,3.0,75,0.00,,,0.00,weatherlink.com 1.10,2013-07-08 12:27:00,
2013-07-08 06:42:00,61.7,54.0,29.77,NNE,18,0.0,6.0,77,0.00,,,0.00,weatherlink.com 1.10,2013-07-08 12:42:00,
2013-07-08 06:57:00,62.1,54.0,29.76,NNE,18,0.0,7.0,76,0.00,,,0.00,weatherlink.com 1.10,2013-07-08 12:57:00,
2013-07-08 07:12:00,64.0,54.0,29.77,NNE,18,0.0,3.0,71,0.00,,,0.00,weatherlink.com 1.10,2013-07-08 13:12:00,
2013-07-08 07:27:00,65.1,54.0,29.76,NNE,18,4.0,5.0,67,0.00,,,0.00,weatherlink.com 1.10,2013-07-08 13:27:00,
2013-07-08 07:43:00,67.7,54.0,29.77,NNE,18,4.0,6.0,62,0.00,,,0.00,weatherlink.com 1.10,2013-07-08 13:43:00,
2013-07-08 07:58:00,70.8,53.0,29.77,WSW,244,9.0,12.0,53,0.00,,,0.00,weatherlink.com 1.10,2013-07-08 13:58:00,
2013-07-08 08:13:00,70.3,57.0,29.77,WSW,245,3.0,8.0,62,0.00,,,0.00,weatherlink.com 1.10,2013-07-08 14:13:00,
2013-07-08 08:28:00,70.8,56.0,29.77,West,278,5.0,9.0,59,0.00,,,0.00,weatherlink.com 1.10,2013-07-08 14:28:00,
2013-07-08 08:43:00,70.9,55.0,29.78,WNW,288,6.0,8.0,58,0.00,,,0.00,weatherlink.com 1.10,2013-07-08 14:43:00,
2013-07-08 08:58:00,72.2,56.0,29.77,WNW,288,5.0,8.0,58,0.00,,,0.00,weatherlink.com 1.10,2013-07-08 14:58:00,
2013-07-08 09:13:00,73.5,55.0,29.77,WNW,288,6.0,8.0,53,0.00,,,0.00,weatherlink.com 1.10,2013-07-08 15:13:00,
2013-07-08 09:28:00,74.1,56.0,29.77,WNW,288,6.0,8.0,53,0.00,,,0.00,weatherlink.com 1.10,2013-07-08 15:28:00,
2013-07-08 09:43:00,74.9,55.0,29.77,NW,309,6.0,10.0,50,0.00,,,0.00,weatherlink.com 1.10,2013-07-08 15:43:00,
2013-07-08 09:58:00,76.2,56.0,29.76,NNW,331,9.0,11.0,50,0.00,,,0.00,weatherlink.com 1.10,2013-07-08 15:58:00,
2013-07-08 10:13:00,77.5,56.0,29.77,North,355,6.0,12.0,48,0.00,,,0.00,weatherlink.com 1.10,2013-07-08 16:13:00,
2013-07-08 10:28:00,78.0,58.0,29.76,North,355,5.0,9.0,50,0.00,,,0.00,weatherlink.com 1.10,2013-07-08 16:28:00,
2013-07-08 10:43:00,79.5,54.0,29.76,North,355,1.0,4.0,42,0.00,,,0.00,weatherlink.com 1.10,2013-07-08 16:43:00,
2013-07-08 10:58:00,80.3,54.0,29.75,North,355,2.0,5.0,40,0.00,,,0.00,weatherlink.com 1.10,2013-07-08 16:58:00,
2013-07-08 11:13:00,81.2,52.0,29.75,North,355,2.0,5.0,37,0.00,,,0.00,weatherlink.com 1.10,2013-07-08 17:13:00,
2013-07-08 11:28:00,82.9,53.0,29.75,North,355,1.0,4.0,35,0.00,,,0.00,weatherlink.com 1.10,2013-07-08 17:28:00,
2013-07-08 11:43:00,83.0,52.0,29.74,North,355,2.0,5.0,34,0.00,,,0.00,weatherlink.com 1.10,2013-07-08 17:43:00,
2013-07-08 11:58:00,84.3,51.0,29.73,North,355,2.0,4.0,32,0.00,,,0.00,weatherlink.com 1.10,2013-07-08 17:58:00,
2013-07-08 12:13:00,85.4,54.0,29.72,East,86,10.0,14.0,34,0.00,,,0.00,weatherlink.com 1.10,2013-07-08 18:13:00,
2013-07-08 12:43:00,86.2,52.0,29.72,SE,134,10.0,12.0,31,0.00,,,0.00,weatherlink.com 1.10,2013-07-08 18:43:00,
2013-07-08 12:59:00,86.3,50.0,29.71,ESE,123,11.0,14.0,29,0.00,,,0.00,weatherlink.com 1.10,2013-07-08 18:59:00,
2013-07-08 13:14:00,84.7,53.0,29.71,SE,142,7.0,13.0,33,0.00,,,0.00,weatherlink.com 1.10,2013-07-08 19:14:00,
2013-07-08 13:44:00,83.4,53.0,29.70,SE,140,4.0,5.0,35,0.00,,,0.00,weatherlink.com 1.10,2013-07-08 19:44:00,
2013-07-08 14:14:00,85.9,55.0,29.69,ESE,123,5.0,10.0,35,0.00,,,0.00,weatherlink.com 1.10,2013-07-08 20:14:00,
2013-07-08 14:59:00,88.5,51.0,29.66,ESE,118,9.0,16.0,28,0.00,,,0.00,weatherlink.com 1.10,2013-07-08 20:59:00,
2013-07-08 15:14:00,88.7,50.0,29.66,ESE,123,11.0,18.0,26,0.00,,,0.00,weatherlink.com 1.10,2013-07-08 21:14:00,
2013-07-08 15:29:00,90.4,49.0,29.66,SE,126,9.0,17.0,24,0.00,,,0.00,weatherlink.com 1.10,2013-07-08 21:29:00,
2013-07-08 15:44:00,90.8,48.0,29.65,ESE,121,5.0,14.0,23,0.00,,,0.00,weatherlink.com 1.10,2013-07-08 21:44:00,
2013-07-08 16:14:00,90.9,47.0,29.65,SE,132,0.0,2.0,22,0.00,,,0.00,weatherlink.com 1.10,2013-07-08 22:14:00,
2013-07-08 16:44:00,90.7,46.0,29.65,ESE,111,2.0,10.0,21,0.00,,,0.00,weatherlink.com 1.10,2013-07-08 22:44:00,
2013-07-08 17:29:00,87.0,48.0,29.64,SE,134,8.0,21.0,26,0.00,,,0.00,weatherlink.com 1.10,2013-07-08 23:29:00,
2013-07-08 18:14:00,78.5,48.0,29.69,NE,34,22.0,29.0,34,0.00,,,0.00,weatherlink.com 1.10,2013-07-09 00:14:00,
2013-07-08 18:45:00,73.0,50.0,29.73,North,5,23.0,27.0,44,0.00,,,0.00,weatherlink.com 1.10,2013-07-09 00:45:00,
2013-07-08 19:00:00,70.9,53.0,29.79,NE,38,10.0,17.0,54,0.00,,,0.00,weatherlink.com 1.10,2013-07-09 01:00:00,
2013-07-08 19:30:00,67.9,54.0,29.76,East,89,5.0,11.0,62,0.01,,,0.01,weatherlink.com 1.10,2013-07-09 01:30:00,
2013-07-08 20:00:00,71.4,58.0,29.72,South,180,12.0,16.0,62,0.01,,,0.01,weatherlink.com 1.10,2013-07-09 02:00:00,
2013-07-08 20:45:00,69.0,57.0,29.72,West,275,5.0,7.0,65,0.00,,,0.01,weatherlink.com 1.10,2013-07-09 02:45:00,
2013-07-08 21:00:00,69.0,56.0,29.73,NNW,339,7.0,10.0,63,0.00,,,0.01,weatherlink.com 1.10,2013-07-09 03:00:00,
2013-07-08 21:15:00,68.8,55.0,29.73,NNW,342,3.0,7.0,61,0.00,,,0.01,weatherlink.com 1.10,2013-07-09 03:15:00,
2013-07-08 21:30:00,69.7,53.0,29.74,NNE,18,9.0,14.0,55,0.00,,,0.01,weatherlink.com 1.10,2013-07-09 03:30:00,
2013-07-08 21:45:00,69.3,53.0,29.76,NNE,18,2.0,8.0,57,0.00,,,0.01,weatherlink.com 1.10,2013-07-09 03:45:00,
2013-07-08 22:15:00,67.7,53.0,29.77,ENE,57,9.0,10.0,60,0.00,,,0.01,weatherlink.com 1.10,2013-07-09 04:15:00,
2013-07-08 22:30:00,67.3,53.0,29.77,ENE,57,3.0,5.0,60,0.00,,,0.01,weatherlink.com 1.10,2013-07-09 04:30:00,
2013-07-08 22:45:00,67.0,53.0,29.79,ENE,57,1.0,3.0,61,0.00,,,0.01,weatherlink.com 1.10,2013-07-09 04:45:00,
2013-07-08 23:00:00,66.2,56.0,29.80,SE,135,9.0,11.0,69,0.00,,,0.01,weatherlink.com 1.10,2013-07-09 05:00:00,
2013-07-08 23:15:00,65.3,56.0,29.79,SE,136,5.0,9.0,73,0.00,,,0.01,weatherlink.com 1.10,2013-07-09 05:15:00,
2013-07-08 23:30:00,64.7,55.0,29.79,SE,136,0.0,5.0,71,0.00,,,0.01,weatherlink.com 1.10,2013-07-09 05:30:00,
2013-07-08 23:45:00,64.1,56.0,29.80,SE,136,0.0,5.0,75,0.00,,,0.01,weatherlink.com 1.10,2013-07-09 05:45:00,